Caribou Island, Canada
Current Conditions -  °F | °C
As of 9:00 AM on Monday 24 Nov 2014 (Local Time) from CYXZ Reporting Station
Light Rain Light Rain  
Wind Chill: 34°   Ceiling: 800
Heat Index: 39°   Visibility: 10mi
Dew Point: 37°   Wind: 8mph
Humidity: 93%   Direction: 10°N
Pressure: 28.93"   Gusts: NA
Location:  47.33°N, 85.83°W
Report Text: CYXZ 241400Z 01007KT 10SM -RA OVC008 04/03 A2893 RMK NS8 SLP804
Loading
Personal Weather Stations






























Interactive Weather Map New forecast layout! Learn more

10-Day Weather Forecast

Advertisements
Track Severe Weather on mobile